Skip Navigation Links
NOAA logo - Click to go to the NOAA homepage
NOAA's National Weather Service
Alaska Aviation Weather Unit
  NWS logo - Click to go to the NWS homepage
Left Navbar Graphic     22 AKDT = 06 GMT

   
NOAA is celebrating 200 years of science, service, and stewardship. Visit the NOAA 200th celebration Web site to learn more.
USA.gov is the U.S. Government's official Web portal to all Federal, state and local government Web resources and services.
Facebook
NWS on Facebook

Important Change Regarding the AAWU Web Presence

 

Over the last several months, the AAWU has been working to navigate its webpages to a nationally supported server. Security, as well as other needs, have necessitated the change.  In the process, we have made an effort to enhance the functionality of our website, as well as some of our products. As of June 20, 2017, aawu.arh.noaa.gov will be discontinued. The new AAWU web address is weather.gov/aawu. It is now live and will run in-parallel with the old site until it is discontinued. Please send any feedback or questions regarding the new webpages to nws.ar.aawu.webauthors@noaa.gov.  Thank you for your patience during this time of transition.
AAWU Home :: Display TAF Add Bookmark
METAR PAKK 280016Z AUTO 16004KT 10SM CLR 06/M07 A2995 RMK AO1=

METAR PAKK 280036Z AUTO 18005KT 10SM CLR 06/M07 A2994 RMK AO1=

METAR PAKK 280056Z AUTO 18003KT 10SM CLR 07/M06 A2994 RMK AO1=

METAR PAKK 280116Z AUTO 16004KT 10SM SCT048 BKN065 07/M06 A2995 RMK
     AO1=

METAR PAKK 280136Z AUTO 21003KT 10SM SCT046 BKN055 06/M06 A2994 RMK
     AO1=

METAR PAKK 280156Z AUTO 18003KT 10SM FEW016 SCT021 BKN029 06/M06 A2994
     RMK AO1=

METAR PAKK 280216Z AUTO 20003KT 10SM SCT018 BKN049 OVC060 06/M06 A2994
     RMK AO1=

METAR PAKK 280236Z AUTO 22005KT 10SM FEW025 SCT039 BKN050 06/M05 A2994
     RMK AO1=

METAR PAKK 280256Z AUTO 19008KT 10SM FEW030 SCT070 BKN090 06/M05 A2994
     RMK AO1 57003=

METAR PAKK 280316Z AUTO 19004KT 10SM FEW028 BKN036 OVC070 05/M06 A2994
     RMK AO1=

METAR PAKK 280336Z AUTO 00000KT 10SM FEW031 BKN037 OVC047 05/M05
 A2994 RMK AO1=

METAR PAKK 280356Z AUTO 00000KT 10SM FEW041 SCT050 OVC065 06/M06 A2993
     RMK AO1=

METAR PAKK 280416Z AUTO 06003KT 10SM SCT065 BKN090 06/M04 A2993 RMK
     AO1=

METAR PAKK 280436Z AUTO 10004KT 10SM BKN090 06/M04 A2993 RMK AO1=

METAR PAKK 280456Z AUTO 11004KT 10SM FEW055 BKN065 OVC090 06/M05
 A2994 RMK AO1=

METAR PAKK 280516Z AUTO 09004KT 10SM FEW030 SCT038 BKN047 06/M05
 A2994 RMK AO1=

METAR PAKK 280536Z AUTO 07004KT 10SM FEW029 BKN036 05/M04 A2993 RMK AO1
     P0001=

METAR PAKK 280556Z AUTO 06003KT 10SM CLR 05/M04 A2993 RMK AO1 P0001
 60001 10070 20050 57003=

METAR PAKK 280616Z AUTO 04003KT 10SM CLR 05/M04 A2993 RMK AO1=


NOAA's National Weather Service
Alaska Aviation Weather Unit
6930 Sand Lake Road
Anchorage, AK 99502-1845
Disclaimer
Credits
Glossary
Privacy Policy
About Us
Career Opportunities
Contact AAWU Internet Services Site last modified: April, 17th 2012